createdAt,value
2022-09-04T00:01:45.233Z,-0.039
2022-09-04T00:06:56.827Z,0.009
2022-09-04T00:12:09.061Z,0.003
2022-09-04T00:17:21.347Z,0.012
2022-09-04T00:22:33.395Z,-0.032
2022-09-04T00:27:45.527Z,0.02
2022-09-04T00:32:57.506Z,-0.024
2022-09-04T00:38:09.717Z,0.025
2022-09-04T00:43:21.775Z,-0.024
2022-09-04T00:48:33.889Z,0.009
2022-09-04T00:53:45.937Z,-0.001
2022-09-04T00:58:57.969Z,0.008
2022-09-04T01:04:09.947Z,-0.002
2022-09-04T01:09:21.780Z,0.009
2022-09-04T01:14:33.767Z,0.002
2022-09-04T01:19:46.490Z,0
2022-09-04T01:24:58.388Z,0.001
2022-09-04T01:30:10.546Z,0.009
2022-09-04T01:35:22.568Z,-0.036
2022-09-04T01:40:35.525Z,0.007
2022-09-04T01:45:47.645Z,-0.001
2022-09-04T01:50:59.886Z,-0.002
2022-09-04T01:56:11.798Z,-0.005
2022-09-04T02:01:23.880Z,0.001
2022-09-04T02:06:35.948Z,-0.004
2022-09-04T02:11:47.945Z,0.004
2022-09-04T02:17:00.031Z,-0.001
2022-09-04T02:22:12.200Z,-0.001
2022-09-04T02:27:24.299Z,-0.004
2022-09-04T02:32:36.396Z,0.002
2022-09-04T02:37:48.300Z,0.012
2022-09-04T02:43:00.530Z,0.003
2022-09-04T02:48:12.731Z,0.013
2022-09-04T02:53:24.813Z,0.004
2022-09-04T02:58:37.013Z,-0.036
2022-09-04T03:03:49.210Z,0.015
2022-09-04T03:09:01.301Z,0.001
2022-09-04T03:14:21.072Z,0
2022-09-04T03:19:33.183Z,0.011
2022-09-04T03:24:47.434Z,0.009
2022-09-04T03:29:59.432Z,0.012
2022-09-04T03:35:11.503Z,0.005
2022-09-04T03:40:24.123Z,0.001
2022-09-04T03:45:36.243Z,-0.01
2022-09-04T03:50:48.504Z,0
2022-09-04T03:56:00.650Z,-0.008
2022-09-04T04:01:12.753Z,-0.004
2022-09-04T04:06:25.183Z,-0.008
2022-09-04T04:11:42.851Z,0
2022-09-04T04:16:57.730Z,0.002
2022-09-04T04:22:09.862Z,0.003
2022-09-04T04:27:21.852Z,-0.003
2022-09-04T04:32:35.041Z,0
2022-09-04T04:37:47.261Z,-0.002
2022-09-04T04:42:59.303Z,0.001
2022-09-04T04:48:11.541Z,0.002
2022-09-04T04:53:23.612Z,0.011
2022-09-04T04:58:35.772Z,-0.011
2022-09-04T05:03:47.941Z,0.011
2022-09-04T05:09:00.262Z,0.02
2022-09-04T05:14:13.078Z,0.017
2022-09-04T05:19:25.602Z,0.021
2022-09-04T05:24:37.979Z,0.022
2022-09-04T05:29:50.242Z,0.016
2022-09-04T05:35:02.522Z,0.019
2022-09-04T05:40:15.902Z,0.024
2022-09-04T05:45:28.191Z,0.032
2022-09-04T05:50:40.395Z,0.028
2022-09-04T05:55:52.447Z,0.035
2022-09-04T06:01:04.522Z,0.025
2022-09-04T06:06:16.504Z,0.015
2022-09-04T06:11:28.588Z,0.021
2022-09-04T06:16:40.680Z,0
2022-09-04T06:21:52.944Z,0.05
2022-09-04T06:27:05.004Z,0.045
2022-09-04T06:32:16.985Z,0.031
2022-09-04T06:37:28.993Z,0.041
2022-09-04T06:42:41.214Z,0.051
2022-09-04T06:47:53.394Z,0.042
2022-09-04T06:53:05.557Z,0.057
2022-09-04T06:58:17.814Z,0.043
2022-09-04T07:03:30.296Z,0.06
2022-09-04T07:08:42.255Z,0.069
2022-09-04T07:13:54.678Z,0.085
2022-09-04T07:19:07.085Z,0.079
2022-09-04T07:24:19.343Z,0.101
2022-09-04T07:29:31.633Z,0.049
2022-09-04T07:34:56.865Z,0.068
2022-09-04T07:40:08.976Z,0.06
2022-09-04T07:45:21.514Z,0.03
2022-09-04T07:50:33.564Z,0.03
2022-09-04T07:55:45.653Z,0.053
2022-09-04T08:00:57.602Z,0.046
2022-09-04T08:06:09.532Z,0.029
2022-09-04T08:11:21.678Z,0.04
2022-09-04T08:16:33.742Z,0.028
2022-09-04T08:21:45.951Z,0.031
2022-09-04T08:26:58.052Z,0.065
2022-09-04T08:32:10.182Z,0.064
2022-09-04T08:37:22.302Z,0.057
2022-09-04T08:42:34.521Z,0.044
2022-09-04T08:47:46.582Z,0.056
2022-09-04T08:53:03.216Z,0.058
2022-09-04T08:58:18.017Z,0.048
2022-09-04T09:03:30.331Z,0.015
2022-09-04T09:08:42.560Z,0.07
2022-09-04T09:13:56.777Z,0.041
2022-09-04T09:19:17.725Z,0.066
2022-09-04T09:24:29.925Z,0.041
2022-09-04T09:29:43.546Z,0.024
2022-09-04T09:34:55.742Z,0.062
2022-09-04T09:40:08.162Z,0.059
2022-09-04T09:45:20.560Z,0.039
2022-09-04T09:50:32.762Z,0.059
2022-09-04T09:55:45.025Z,0.053
2022-09-04T10:00:57.226Z,0.045
2022-09-04T10:06:09.921Z,0.063
2022-09-04T10:11:29.265Z,0.043
2022-09-04T10:16:41.624Z,-0.043
2022-09-04T10:21:54.377Z,0.068
2022-09-04T10:27:06.797Z,0.031
2022-09-04T10:32:20.178Z,0.09
2022-09-04T10:37:32.704Z,0.044
2022-09-04T10:42:45.456Z,0.08
2022-09-04T10:47:58.029Z,0.057
2022-09-04T10:53:12.525Z,0.065
2022-09-04T10:58:26.269Z,0.079
2022-09-04T11:03:39.257Z,0.082
2022-09-04T11:08:51.677Z,0.042
2022-09-04T11:14:04.242Z,0.069
2022-09-04T11:19:17.040Z,0.137
2022-09-04T11:24:30.167Z,0.306
2022-09-04T11:29:43.610Z,0.204
2022-09-04T11:34:56.891Z,0.178
2022-09-04T11:40:10.074Z,0.117
2022-09-04T11:45:23.164Z,0.114
2022-09-04T11:50:37.412Z,0.103
2022-09-04T11:55:52.818Z,0.093
2022-09-04T12:01:08.266Z,0.143
2022-09-04T12:06:24.242Z,0.027
2022-09-04T12:11:36.640Z,0.134
2022-09-04T12:16:49.469Z,-0.049
2022-09-04T12:22:02.720Z,0.015
2022-09-04T12:27:15.356Z,-0.013
2022-09-04T12:32:28.249Z,0.081
2022-09-04T12:37:41.216Z,0.145
2022-09-04T12:42:54.760Z,0.134
2022-09-04T12:48:08.148Z,-0.004
2022-09-04T13:08:53.626Z,0.222
2022-09-04T13:19:18.560Z,0.084
2022-09-04T13:24:32.389Z,0.098
2022-09-04T13:29:44.881Z,0.026
2022-09-04T13:55:39.696Z,-0.048
2022-09-04T14:11:14.369Z,-0.027
2022-09-04T14:16:27.370Z,0.062
2022-09-04T14:21:40.743Z,-0.024
2022-09-04T14:40:52.717Z,0.009
2022-09-04T14:46:05.210Z,0.076
2022-09-04T14:51:18.158Z,0.053
2022-09-04T14:56:30.958Z,0.051
2022-09-04T15:07:10.664Z,0.066
2022-09-04T15:12:24.502Z,0.038
2022-09-04T15:17:42.495Z,0.004
2022-09-04T15:22:55.392Z,0.039
2022-09-04T15:28:08.122Z,-0.035
2022-09-04T15:33:22.782Z,0.002
2022-09-04T15:38:43.485Z,-0.043
2022-09-04T15:43:56.203Z,0.008
2022-09-04T16:04:40.836Z,0.025
2022-09-04T16:09:53.584Z,0.023
2022-09-04T16:15:06.446Z,-0.013
2022-09-04T16:20:20.761Z,-0.039
2022-09-04T16:30:43.785Z,-0.008
2022-09-04T16:35:56.815Z,0.027
2022-09-04T16:41:09.637Z,-0.007
2022-09-04T16:46:22.469Z,-0.031
2022-09-04T16:56:45.389Z,-0.038
2022-09-04T17:12:21.294Z,0
2022-09-04T17:17:33.200Z,-0.037
2022-09-04T17:29:07.424Z,-0.03
2022-09-04T17:37:53.634Z,-0.04
2022-09-04T17:57:32.156Z,-0.033
2022-09-04T18:02:45.410Z,-0.043
2022-09-04T18:08:08.710Z,-0.03
2022-09-04T18:13:27.251Z,-0.014
2022-09-04T18:18:47.396Z,0
2022-09-04T18:23:59.466Z,-0.014
2022-09-04T18:37:15.442Z,0.005
2022-09-04T18:44:25.903Z,-0.024
2022-09-04T18:56:24.123Z,0.008
2022-09-04T19:01:35.880Z,0.003
2022-09-04T19:06:48.231Z,-0.025
2022-09-04T19:12:00.523Z,-0.001
2022-09-04T19:17:13.097Z,-0.038
2022-09-04T19:22:28.443Z,0.009
2022-09-04T19:27:43.732Z,-0.005
2022-09-04T19:32:56.265Z,-0.037
2022-09-04T19:38:35.780Z,0.015
2022-09-04T19:51:55.508Z,0.002
2022-09-04T19:58:53.961Z,0.018
2022-09-04T20:04:06.009Z,-0.001
2022-09-04T20:09:18.280Z,-0.029
2022-09-04T20:14:30.852Z,0.031
2022-09-04T20:19:43.098Z,0.007
2022-09-04T20:24:57.082Z,0.003
2022-09-04T20:30:18.629Z,0.003
2022-09-04T20:35:32.468Z,0.005
2022-09-04T20:40:45.188Z,0.006
2022-09-04T21:00:07.645Z,0.008
2022-09-04T21:08:32.323Z,0.013
2022-09-04T21:13:44.016Z,0.028
2022-09-04T21:19:06.483Z,0.019
2022-09-04T21:24:37.447Z,-0.015
2022-09-04T21:29:49.840Z,0.036
2022-09-04T21:35:02.101Z,0.026
2022-09-04T21:40:20.226Z,0.014
2022-09-04T21:46:00.415Z,0.006
2022-09-04T21:51:26.794Z,0.012
2022-09-04T21:58:31.305Z,0.006
2022-09-04T22:10:14.065Z,0.012
2022-09-04T22:18:53.450Z,0.001
2022-09-04T22:24:04.760Z,-0.036
2022-09-04T22:34:26.427Z,0.007
2022-09-04T22:39:38.671Z,0
2022-09-04T22:44:50.949Z,0.019
2022-09-04T22:50:03.410Z,0.003
2022-09-04T22:55:36.471Z,0.013
2022-09-04T23:01:30.872Z,0.018
2022-09-04T23:08:58.544Z,0.017
2022-09-04T23:21:04.611Z,0.001
2022-09-04T23:32:07.121Z,0
2022-09-04T23:37:22.819Z,0.009
2022-09-04T23:42:34.603Z,0
2022-09-04T23:47:49.215Z,0.006
2022-09-04T23:53:00.668Z,0.006
2022-09-04T23:58:12.669Z,0.01
